Feltwell, United Kingdom
Current Conditions -  °F | °C
As of 7:58 AM on Friday 24 Oct 2014 (Local Time) from EGUL Reporting Station
Overcast Overcast  
Wind Chill: 57°   Ceiling: 1700
Heat Index: 57°   Visibility: 6mi
Dew Point: 57°   Wind: 12mph
Humidity: 100%   Direction: 210°SSW
Pressure: 29.93"   Gusts: NA
Location:  52.49°N, 0.52°E
Report Text: EGUL 240658Z AUTO 21010KT 9999 OVC017 14/14 A2993 RMK AO2 SLP138 T01380138
Loading
Personal Weather Stations






























Interactive Weather Map
Tropical Storm Tracking
New forecast layout! Learn more

10-Day Weather Forecast

Advertisements
Track Severe Weather on mobile